createdAt,value
2023-04-16T00:00:42.382Z,11.55
2023-04-16T00:03:10.001Z,12.18
2023-04-16T00:05:37.571Z,11.85
2023-04-16T00:08:05.023Z,11.65
2023-04-16T00:10:32.523Z,11.65
2023-04-16T00:12:59.954Z,11.35
2023-04-16T00:15:28.755Z,12.15
2023-04-16T00:17:56.270Z,11.05
2023-04-16T00:20:23.785Z,11.63
2023-04-16T00:22:52.077Z,10.30
2023-04-16T00:25:19.500Z,11.20
2023-04-16T00:27:46.932Z,11.45
2023-04-16T00:30:14.882Z,11.95
2023-04-16T00:32:43.728Z,11.55
2023-04-16T00:35:11.227Z,11.20
2023-04-16T00:37:38.661Z,12.07
2023-04-16T00:40:07.403Z,11.43
2023-04-16T00:42:34.882Z,12.15
2023-04-16T00:45:02.341Z,11.73
2023-04-16T00:47:30.053Z,11.93
2023-04-16T00:49:58.861Z,11.88
2023-04-16T00:52:26.756Z,12.35
2023-04-16T00:54:54.913Z,11.48
2023-04-16T00:57:23.825Z,11.80
2023-04-16T00:59:51.521Z,10.98
2023-04-16T01:02:19.146Z,11.70
2023-04-16T01:04:46.739Z,11.80
2023-04-16T01:07:15.659Z,12.20
2023-04-16T01:09:43.124Z,11.35
2023-04-16T01:12:10.547Z,11.73
2023-04-16T01:14:38.016Z,11.55
2023-04-16T01:17:05.531Z,12.77
2023-04-16T01:19:36.092Z,11.15
2023-04-16T01:22:05.614Z,11.35
2023-04-16T01:24:33.087Z,12.13
2023-04-16T01:27:00.536Z,12.85
2023-04-16T01:29:28.346Z,11.77
2023-04-16T01:31:55.786Z,12.38
2023-04-16T01:34:23.215Z,13.38
2023-04-16T01:36:51.084Z,12.85
2023-04-16T01:39:19.978Z,12.63
2023-04-16T01:41:47.473Z,13.18
2023-04-16T01:44:14.993Z,13.02
2023-04-16T01:46:42.535Z,12.95
2023-04-16T01:49:10.375Z,13.93
2023-04-16T01:51:37.985Z,12.95
2023-04-16T01:54:05.670Z,13.55
2023-04-16T01:56:34.511Z,12.93
2023-04-16T01:59:01.984Z,13.48
2023-04-16T02:01:30.310Z,13.35
2023-04-16T02:03:58.299Z,12.75
2023-04-16T02:06:25.974Z,13.40
2023-04-16T02:08:53.458Z,13.98
2023-04-16T02:11:21.979Z,13.13
2023-04-16T02:13:50.859Z,13.93
2023-04-16T02:16:18.374Z,13.88
2023-04-16T02:18:45.930Z,14.07
2023-04-16T02:21:13.860Z,13.75
2023-04-16T02:23:41.660Z,15.13
2023-04-16T02:26:09.217Z,14.63
2023-04-16T02:28:36.705Z,15.10
2023-04-16T02:31:05.703Z,14.68
2023-04-16T02:33:33.175Z,16.17
2023-04-16T02:36:00.731Z,16.45
2023-04-16T02:38:28.237Z,16.15
2023-04-16T02:40:55.691Z,15.77
2023-04-16T02:43:23.089Z,15.77
2023-04-16T02:45:50.555Z,17.02
2023-04-16T02:48:19.343Z,16.02
2023-04-16T02:50:46.803Z,18.20
2023-04-16T02:53:14.244Z,17.48
2023-04-16T02:55:41.684Z,17.55
2023-04-16T02:58:09.117Z,16.38
2023-04-16T03:00:36.827Z,17.50
2023-04-16T03:03:04.505Z,17.50
2023-04-16T03:05:33.658Z,17.27
2023-04-16T03:08:01.129Z,18.27
2023-04-16T03:10:28.533Z,17.50
2023-04-16T03:12:55.967Z,18.23
2023-04-16T03:15:23.474Z,18.13
2023-04-16T03:17:51.094Z,18.73
2023-04-16T03:20:19.064Z,17.52
2023-04-16T03:22:48.295Z,18.20
2023-04-16T03:25:15.833Z,17.23
2023-04-16T03:27:43.270Z,18.75
2023-04-16T03:30:13.067Z,18.85
2023-04-16T03:32:40.925Z,18.90
2023-04-16T03:35:09.644Z,18.50
2023-04-16T03:37:37.172Z,17.98
2023-04-16T03:40:07.065Z,16.92
2023-04-16T03:42:34.571Z,18.30
2023-04-16T03:45:01.999Z,18.38
2023-04-16T03:47:29.516Z,19.00
2023-04-16T03:49:56.970Z,17.67
2023-04-16T03:52:24.446Z,18.13
2023-04-16T03:54:52.119Z,17.35
2023-04-16T03:57:20.918Z,17.38
2023-04-16T03:59:48.354Z,18.55
2023-04-16T04:02:16.006Z,19.33
2023-04-16T04:04:43.633Z,18.55
2023-04-16T04:07:11.149Z,19.15
2023-04-16T04:09:38.686Z,20.10
2023-04-16T04:12:06.172Z,19.85
2023-04-16T04:14:39.579Z,19.52
2023-04-16T04:17:07.127Z,19.95
2023-04-16T04:19:34.681Z,18.52
2023-04-16T04:22:02.178Z,19.67
2023-04-16T04:24:29.669Z,20.55
2023-04-16T04:26:57.290Z,20.17
2023-04-16T04:29:24.779Z,21.90
2023-04-16T04:31:55.117Z,21.02
2023-04-16T04:34:22.653Z,20.38
2023-04-16T04:36:50.150Z,20.63
2023-04-16T04:39:17.770Z,21.08
2023-04-16T04:41:45.257Z,21.90
2023-04-16T04:44:12.732Z,23.23
2023-04-16T04:46:40.606Z,21.52
2023-04-16T04:49:09.525Z,21.60
2023-04-16T04:51:37.198Z,21.15
2023-04-16T04:54:04.763Z,20.15
2023-04-16T04:56:32.193Z,21.13
2023-04-16T04:58:59.618Z,20.58
2023-04-16T05:01:27.090Z,21.27
2023-04-16T05:03:54.607Z,21.35
2023-04-16T05:06:23.463Z,21.70
2023-04-16T05:08:50.861Z,21.83
2023-04-16T05:11:18.302Z,21.13
2023-04-16T05:13:45.762Z,21.58
2023-04-16T05:16:13.255Z,21.17
2023-04-16T05:18:40.727Z,21.40
2023-04-16T05:21:08.160Z,21.75
2023-04-16T05:23:36.937Z,22.60
2023-04-16T05:26:04.431Z,23.08
2023-04-16T05:28:32.148Z,23.10
2023-04-16T05:30:59.623Z,21.88
2023-04-16T05:33:27.080Z,22.92
2023-04-16T05:35:54.518Z,22.15
2023-04-16T05:38:21.986Z,22.33
2023-04-16T05:40:50.805Z,21.15
2023-04-16T05:43:18.917Z,22.65
2023-04-16T05:45:46.481Z,21.88
2023-04-16T05:48:13.947Z,21.38
2023-04-16T05:50:41.377Z,21.73
2023-04-16T05:53:09.779Z,22.25
2023-04-16T05:55:37.577Z,22.15
2023-04-16T05:58:06.426Z,21.75
2023-04-16T06:00:34.412Z,21.55
2023-04-16T06:03:03.002Z,21.23
2023-04-16T06:05:30.797Z,22.08
2023-04-16T06:07:58.262Z,23.25
2023-04-16T06:10:25.767Z,21.75
2023-04-16T06:12:53.273Z,22.70
2023-04-16T06:15:22.097Z,22.50
2023-04-16T06:17:50.311Z,21.60
2023-04-16T06:20:17.948Z,23.42
2023-04-16T06:22:45.386Z,22.50
2023-04-16T06:25:12.860Z,22.13
2023-04-16T06:27:40.280Z,22.65
2023-04-16T06:30:13.280Z,21.63
2023-04-16T06:32:43.015Z,22.45
2023-04-16T06:35:10.837Z,22.02
2023-04-16T06:37:38.294Z,22.00
2023-04-16T06:40:06.698Z,22.10
2023-04-16T06:42:34.210Z,21.65
2023-04-16T06:45:02.127Z,20.95
2023-04-16T06:47:29.712Z,20.85
2023-04-16T06:49:58.578Z,21.92
2023-04-16T06:52:26.161Z,21.80
2023-04-16T06:54:53.591Z,21.80
2023-04-16T06:57:21.032Z,20.70
2023-04-16T06:59:48.502Z,20.42
2023-04-16T07:02:16.139Z,21.50
2023-04-16T07:04:43.635Z,20.33
2023-04-16T07:07:12.441Z,20.83
2023-04-16T07:09:39.938Z,19.77
2023-04-16T07:12:08.060Z,20.73
2023-04-16T07:14:35.615Z,21.02
2023-04-16T07:17:03.295Z,22.38
2023-04-16T07:19:32.524Z,21.15
2023-04-16T07:21:59.977Z,22.23
2023-04-16T07:24:28.762Z,21.05
2023-04-16T07:26:56.232Z,21.00
2023-04-16T07:29:23.778Z,20.45
2023-04-16T07:31:51.349Z,20.95
2023-04-16T07:34:18.946Z,22.15
2023-04-16T07:36:46.395Z,22.30
2023-04-16T07:39:13.858Z,21.75
2023-04-16T07:41:42.920Z,21.25
2023-04-16T07:44:10.562Z,22.20
2023-04-16T07:46:46.224Z,22.08
2023-04-16T07:49:15.372Z,22.45
2023-04-16T07:51:43.015Z,22.27
2023-04-16T07:54:11.487Z,21.55
2023-04-16T07:56:39.093Z,21.05
2023-04-16T07:59:19.069Z,20.95
2023-04-16T08:01:50.894Z,21.73
2023-04-16T08:04:24.274Z,21.45
2023-04-16T08:06:52.521Z,22.05
2023-04-16T08:09:20.457Z,21.00
2023-04-16T08:11:49.092Z,22.17
2023-04-16T08:14:18.182Z,20.75
2023-04-16T08:16:45.784Z,21.50
2023-04-16T08:19:13.492Z,20.35
2023-04-16T08:21:41.303Z,22.63
2023-04-16T08:24:08.967Z,21.30
2023-04-16T08:26:36.561Z,22.20
2023-04-16T08:29:04.056Z,22.02
2023-04-16T08:31:33.112Z,21.05
2023-04-16T08:34:01.277Z,21.67
2023-04-16T08:36:28.749Z,20.52
2023-04-16T08:38:56.244Z,22.20
2023-04-16T08:41:25.847Z,19.73
2023-04-16T08:43:56.274Z,20.65
2023-04-16T08:46:26.518Z,20.10
2023-04-16T08:48:56.661Z,20.02
2023-04-16T08:51:24.919Z,20.73
2023-04-16T08:53:54.118Z,20.60
2023-04-16T08:56:23.972Z,20.73
2023-04-16T08:58:52.590Z,21.05
2023-04-16T09:01:20.815Z,19.67
2023-04-16T09:03:49.759Z,19.95
2023-04-16T09:06:18.781Z,21.88
2023-04-16T09:08:46.584Z,21.10
2023-04-16T09:11:15.229Z,19.45
2023-04-16T09:13:42.738Z,20.52
2023-04-16T09:16:11.855Z,19.65
2023-04-16T09:18:39.404Z,20.30
2023-04-16T09:21:07.702Z,19.67
2023-04-16T09:23:38.569Z,20.05
2023-04-16T09:26:06.632Z,18.75
2023-04-16T09:28:40.907Z,20.13
2023-04-16T09:31:09.993Z,17.77
2023-04-16T09:33:37.493Z,20.35
2023-04-16T09:36:06.524Z,19.33
2023-04-16T09:38:52.309Z,19.70
2023-04-16T09:41:20.536Z,21.00
2023-04-16T09:43:56.400Z,20.05
2023-04-16T09:46:24.607Z,19.70
2023-04-16T09:48:52.146Z,20.17
2023-04-16T09:51:19.643Z,19.48
2023-04-16T09:53:47.147Z,19.90
2023-04-16T09:56:15.960Z,19.08
2023-04-16T09:58:43.419Z,19.38
2023-04-16T10:01:12.859Z,20.15
2023-04-16T10:03:41.883Z,19.85
2023-04-16T10:06:15.611Z,20.20
2023-04-16T10:08:44.679Z,20.30
2023-04-16T10:11:12.204Z,19.70
2023-04-16T10:13:41.128Z,21.40
2023-04-16T10:16:09.408Z,20.05
2023-04-16T10:18:38.090Z,18.95
2023-04-16T10:21:06.510Z,20.52
2023-04-16T10:23:34.440Z,18.75
2023-04-16T10:26:02.807Z,20.02
2023-04-16T10:28:31.211Z,21.15
2023-04-16T10:31:01.020Z,20.08
2023-04-16T10:33:31.167Z,19.08
2023-04-16T10:36:10.319Z,20.27
2023-04-16T10:38:40.935Z,18.80
2023-04-16T10:41:09.592Z,18.98
2023-04-16T10:43:41.915Z,19.58
2023-04-16T10:46:21.668Z,19.42
2023-04-16T10:48:51.030Z,19.83
2023-04-16T10:51:27.770Z,19.05
2023-04-16T10:53:56.064Z,17.58
2023-04-16T10:56:24.605Z,18.27
2023-04-16T10:58:54.251Z,17.17
2023-04-16T11:01:31.435Z,17.67
2023-04-16T11:04:01.880Z,17.42
2023-04-16T11:06:31.900Z,17.80
2023-04-16T11:08:59.389Z,18.45
2023-04-16T11:11:28.311Z,17.27
2023-04-16T11:13:59.011Z,17.13
2023-04-16T11:16:28.137Z,16.63
2023-04-16T11:18:57.085Z,15.73
2023-04-16T11:21:25.328Z,18.27
2023-04-16T11:23:54.180Z,16.70
2023-04-16T11:26:24.801Z,16.20
2023-04-16T11:28:52.534Z,16.80
2023-04-16T11:31:20.067Z,17.92
2023-04-16T11:33:48.914Z,15.48
2023-04-16T11:36:16.509Z,16.25
2023-04-16T11:38:43.960Z,17.42
2023-04-16T11:41:11.919Z,16.02
2023-04-16T11:43:39.385Z,14.93
2023-04-16T11:46:16.211Z,15.70
2023-04-16T11:48:50.250Z,15.48
2023-04-16T11:51:18.071Z,16.60
2023-04-16T11:53:53.407Z,15.27
2023-04-16T11:56:28.421Z,15.95
2023-04-16T11:59:10.000Z,15.52
2023-04-16T12:01:39.141Z,15.45
2023-04-16T12:04:09.200Z,15.77
2023-04-16T12:06:37.151Z,15.07
2023-04-16T12:09:25.886Z,16.45
2023-04-16T12:11:53.987Z,15.85
2023-04-16T12:14:21.783Z,15.00
2023-04-16T12:16:49.507Z,15.73
2023-04-16T12:19:18.827Z,16.02
2023-04-16T12:21:48.292Z,15.75
2023-04-16T12:24:20.522Z,14.95
2023-04-16T12:26:52.779Z,15.52
2023-04-16T12:29:21.980Z,15.48
2023-04-16T12:31:50.392Z,17.58
2023-04-16T12:34:20.855Z,15.93
2023-04-16T12:36:50.151Z,15.90
2023-04-16T12:39:17.624Z,15.52
2023-04-16T12:41:45.748Z,16.35
2023-04-16T12:44:17.808Z,25.83
2023-04-16T12:46:46.236Z,19.45
2023-04-16T12:49:13.976Z,18.90
2023-04-16T12:51:42.820Z,15.90
2023-04-16T12:54:10.484Z,17.15
2023-04-16T12:56:38.292Z,15.15
2023-04-16T12:59:05.768Z,17.27
2023-04-16T13:01:36.006Z,14.93
2023-04-16T13:04:03.798Z,16.15
2023-04-16T13:06:32.537Z,15.30
2023-04-16T13:09:01.393Z,15.15
2023-04-16T13:11:28.924Z,17.55
2023-04-16T13:13:56.400Z,15.38
2023-04-16T13:16:23.906Z,23.08
2023-04-16T13:18:51.491Z,18.23
2023-04-16T13:21:18.963Z,14.40
2023-04-16T13:23:48.944Z,15.82
2023-04-16T13:26:17.805Z,15.50
2023-04-16T13:28:45.265Z,15.50
2023-04-16T13:31:12.967Z,17.23
2023-04-16T13:33:40.742Z,15.30
2023-04-16T13:36:08.321Z,14.57
2023-04-16T13:38:35.876Z,13.30
2023-04-16T13:41:03.334Z,15.05
2023-04-16T13:43:32.107Z,14.40
2023-04-16T13:46:00.849Z,15.95
2023-04-16T13:48:29.236Z,14.43
2023-04-16T13:50:56.893Z,14.40
2023-04-16T13:53:24.336Z,14.13
2023-04-16T13:55:51.842Z,14.85
2023-04-16T13:58:19.334Z,13.73
2023-04-16T14:00:48.224Z,13.93
2023-04-16T14:03:15.838Z,14.77
2023-04-16T14:05:43.723Z,14.25
2023-04-16T14:08:12.903Z,13.15
2023-04-16T14:10:40.570Z,13.50
2023-04-16T14:13:08.094Z,13.88
2023-04-16T14:15:35.991Z,12.23
2023-04-16T14:18:05.172Z,13.20
2023-04-16T14:20:32.968Z,13.15
2023-04-16T14:23:00.423Z,12.23
2023-04-16T14:25:27.986Z,13.10
2023-04-16T14:27:55.974Z,12.57
2023-04-16T14:30:23.498Z,13.02
2023-04-16T14:32:51.069Z,12.93
2023-04-16T14:35:20.268Z,12.23
2023-04-16T14:37:47.831Z,12.20
2023-04-16T14:40:15.351Z,11.95
2023-04-16T14:42:42.840Z,12.20
2023-04-16T14:45:11.012Z,12.18
2023-04-16T14:47:45.404Z,12.77
2023-04-16T14:50:14.670Z,12.10
2023-04-16T14:52:43.512Z,12.43
2023-04-16T14:55:10.992Z,11.77
2023-04-16T14:57:38.947Z,12.45
2023-04-16T15:00:09.679Z,12.43
2023-04-16T15:02:37.694Z,12.13
2023-04-16T15:05:07.711Z,12.43
2023-04-16T15:07:35.147Z,12.30
2023-04-16T15:10:04.823Z,12.50
2023-04-16T15:12:32.372Z,12.85
2023-04-16T15:15:00.333Z,12.75
2023-04-16T15:17:27.960Z,12.38
2023-04-16T15:19:55.531Z,12.18
2023-04-16T15:22:23.105Z,12.65
2023-04-16T15:24:50.660Z,12.23
2023-04-16T15:27:20.418Z,12.30
2023-04-16T15:29:49.303Z,12.05
2023-04-16T15:32:16.774Z,12.23
2023-04-16T15:34:44.399Z,11.60
2023-04-16T15:37:11.855Z,11.32
2023-04-16T15:39:39.500Z,11.05
2023-04-16T15:42:07.691Z,10.88
2023-04-16T15:44:36.532Z,11.43
2023-04-16T15:47:06.143Z,10.50
2023-04-16T15:49:33.635Z,11.13
2023-04-16T15:52:01.438Z,11.18
2023-04-16T15:54:30.133Z,10.18
2023-04-16T15:56:58.550Z,10.73
2023-04-16T15:59:26.159Z,11.63
2023-04-16T16:01:55.094Z,11.05
2023-04-16T16:04:23.338Z,10.60
2023-04-16T16:06:51.628Z,11.07
2023-04-16T16:09:25.412Z,11.68
2023-04-16T16:11:54.019Z,11.05
2023-04-16T16:14:21.820Z,10.85
2023-04-16T16:16:49.560Z,11.68
2023-04-16T16:19:18.638Z,11.65
2023-04-16T16:21:46.130Z,13.18
2023-04-16T16:24:13.800Z,11.30
2023-04-16T16:26:41.372Z,12.35
2023-04-16T16:29:09.110Z,12.07
2023-04-16T16:31:36.721Z,11.52
2023-04-16T16:34:04.320Z,11.43
2023-04-16T16:36:36.516Z,11.65
2023-04-16T16:39:04.677Z,12.07
2023-04-16T16:41:32.245Z,11.40
2023-04-16T16:43:59.704Z,11.10
2023-04-16T16:46:27.171Z,11.15
2023-04-16T16:48:54.698Z,10.55
2023-04-16T16:51:22.173Z,11.52
2023-04-16T16:53:50.954Z,11.02
2023-04-16T16:56:18.385Z,11.93
2023-04-16T16:58:46.260Z,11.07
2023-04-16T17:01:13.736Z,10.90
2023-04-16T17:03:42.095Z,10.55
2023-04-16T17:06:09.751Z,10.98
2023-04-16T17:08:37.210Z,11.20
2023-04-16T17:11:06.105Z,11.13
2023-04-16T17:13:34.365Z,12.32
2023-04-16T17:16:01.808Z,11.82
2023-04-16T17:18:29.316Z,12.40
2023-04-16T17:20:56.806Z,11.25
2023-04-16T17:23:24.335Z,11.57
2023-04-16T17:25:51.811Z,11.73
2023-04-16T17:28:21.357Z,11.48
2023-04-16T17:30:52.374Z,11.52
2023-04-16T17:33:20.391Z,11.73
2023-04-16T17:35:47.972Z,20.52
2023-04-16T17:38:15.492Z,19.77
2023-04-16T17:40:42.996Z,16.23
2023-04-16T17:43:10.515Z,12.15
2023-04-16T17:45:39.374Z,13.27
2023-04-16T17:48:07.304Z,12.05
2023-04-16T17:50:36.029Z,12.35
2023-04-16T17:53:04.532Z,11.95
2023-04-16T17:55:32.266Z,12.00
2023-04-16T17:58:00.282Z,11.90
2023-04-16T18:00:27.755Z,12.05
2023-04-16T18:02:58.277Z,12.20
2023-04-16T18:05:26.256Z,12.38
2023-04-16T18:07:55.260Z,12.45
2023-04-16T18:10:22.974Z,12.20
2023-04-16T18:12:50.618Z,12.30
2023-04-16T18:15:18.369Z,11.55
2023-04-16T18:17:46.060Z,11.88
2023-04-16T18:20:16.772Z,12.48
2023-04-16T18:22:44.231Z,12.93
2023-04-16T18:25:12.142Z,12.05
2023-04-16T18:27:39.686Z,12.68
2023-04-16T18:30:09.917Z,12.48
2023-04-16T18:33:04.191Z,12.32
2023-04-16T18:35:35.294Z,12.15
2023-04-16T18:38:02.764Z,12.93
2023-04-16T18:40:30.327Z,12.90
2023-04-16T18:42:57.820Z,13.95
2023-04-16T18:45:28.148Z,14.93
2023-04-16T18:47:58.486Z,15.35
2023-04-16T18:50:26.013Z,15.10
2023-04-16T18:52:54.821Z,16.15
2023-04-16T18:55:22.296Z,15.70
2023-04-16T18:57:49.913Z,17.27
2023-04-16T19:00:18.181Z,18.50
2023-04-16T19:02:45.801Z,18.83
2023-04-16T19:05:13.402Z,18.42
2023-04-16T19:07:41.669Z,17.58
2023-04-16T19:10:11.292Z,16.75
2023-04-16T19:12:38.851Z,16.92
2023-04-16T19:15:07.104Z,17.08
2023-04-16T19:17:34.607Z,18.58
2023-04-16T19:20:02.200Z,17.00
2023-04-16T19:22:29.698Z,16.88
2023-04-16T19:24:57.191Z,16.55
2023-04-16T19:27:26.117Z,17.83
2023-04-16T19:29:53.585Z,17.98
2023-04-16T19:32:21.080Z,17.85
2023-04-16T19:34:48.614Z,17.02
2023-04-16T19:37:16.226Z,17.50
2023-04-16T19:39:43.722Z,17.40
2023-04-16T19:42:11.193Z,17.88
2023-04-16T19:44:39.991Z,17.80
2023-04-16T19:47:07.489Z,17.05
2023-04-16T19:49:35.008Z,17.33
2023-04-16T19:52:02.601Z,15.35
2023-04-16T19:54:33.418Z,16.85
2023-04-16T19:57:01.505Z,16.92
2023-04-16T19:59:29.009Z,16.17
2023-04-16T20:01:57.851Z,16.67
2023-04-16T20:04:25.375Z,16.17
2023-04-16T20:06:53.531Z,16.17
2023-04-16T20:09:21.217Z,14.98
2023-04-16T20:11:48.677Z,15.80
2023-04-16T20:14:16.520Z,16.83
2023-04-16T20:16:44.513Z,16.33
2023-04-16T20:19:17.063Z,16.02
2023-04-16T20:21:45.406Z,17.70
2023-04-16T20:24:12.906Z,17.67
2023-04-16T20:26:40.449Z,17.02
2023-04-16T20:29:08.112Z,17.13
2023-04-16T20:31:35.632Z,16.05
2023-04-16T20:34:03.689Z,17.27
2023-04-16T20:36:32.584Z,16.50
2023-04-16T20:39:01.999Z,16.90
2023-04-16T20:41:30.083Z,17.88
2023-04-16T20:43:57.542Z,17.95
2023-04-16T20:46:25.030Z,18.60
2023-04-16T20:48:52.615Z,18.05
2023-04-16T20:51:21.423Z,17.88
2023-04-16T20:53:52.005Z,17.17
2023-04-16T20:56:19.550Z,18.27
2023-04-16T20:58:47.013Z,18.17
2023-04-16T21:01:14.611Z,19.77
2023-04-16T21:03:42.205Z,18.52
2023-04-16T21:06:12.580Z,18.95
2023-04-16T21:08:40.019Z,17.83
2023-04-16T21:11:08.863Z,19.10
2023-04-16T21:13:36.332Z,19.42
2023-04-16T21:16:04.821Z,18.02
2023-04-16T21:18:32.395Z,17.90
2023-04-16T21:20:59.987Z,18.15
2023-04-16T21:23:27.552Z,17.65
2023-04-16T21:25:56.188Z,16.95
2023-04-16T21:28:25.014Z,17.95
2023-04-16T21:30:52.528Z,17.25
2023-04-16T21:33:20.312Z,17.90
2023-04-16T21:35:51.992Z,17.40
2023-04-16T21:38:19.556Z,18.48
2023-04-16T21:40:50.370Z,18.25
2023-04-16T21:43:17.842Z,17.58
2023-04-16T21:45:46.765Z,15.77
2023-04-16T21:48:14.530Z,17.40
2023-04-16T21:50:41.948Z,16.88
2023-04-16T21:53:09.764Z,16.95
2023-04-16T21:55:38.970Z,16.95
2023-04-16T21:58:06.390Z,17.95
2023-04-16T22:00:34.095Z,16.77
2023-04-16T22:03:04.153Z,18.13
2023-04-16T22:05:33.133Z,16.63
2023-04-16T22:08:04.010Z,17.73
2023-04-16T22:10:39.245Z,18.63
2023-04-16T22:13:12.527Z,18.00
2023-04-16T22:15:40.478Z,18.33
2023-04-16T22:18:09.551Z,18.45
2023-04-16T22:20:39.731Z,19.77
2023-04-16T22:23:07.323Z,18.98
2023-04-16T22:25:34.800Z,19.90
2023-04-16T22:28:02.290Z,20.55
2023-04-16T22:30:29.727Z,20.25
2023-04-16T22:32:57.655Z,21.77
2023-04-16T22:35:26.478Z,20.60
2023-04-16T22:37:53.916Z,20.90
2023-04-16T22:40:21.429Z,23.10
2023-04-16T22:42:50.113Z,21.50
2023-04-16T22:45:17.710Z,21.23
2023-04-16T22:47:45.243Z,23.40
2023-04-16T22:50:12.972Z,22.63
2023-04-16T22:52:41.826Z,23.58
2023-04-16T22:55:09.933Z,22.98
2023-04-16T22:57:37.398Z,23.25
2023-04-16T23:00:09.546Z,23.75
2023-04-16T23:02:37.114Z,23.27
2023-04-16T23:05:04.989Z,24.05
2023-04-16T23:07:32.427Z,23.77
2023-04-16T23:10:01.264Z,24.02
2023-04-16T23:12:28.719Z,24.48
2023-04-16T23:14:56.312Z,23.35
2023-04-16T23:17:23.995Z,24.23
2023-04-16T23:19:51.428Z,21.40
2023-04-16T23:22:18.873Z,24.63
2023-04-16T23:24:46.306Z,24.15
2023-04-16T23:27:15.421Z,23.55
2023-04-16T23:29:42.870Z,23.70
2023-04-16T23:32:10.299Z,23.67
2023-04-16T23:34:37.745Z,24.38
2023-04-16T23:37:05.214Z,24.77
2023-04-16T23:39:32.636Z,24.75
2023-04-16T23:42:00.469Z,23.85
2023-04-16T23:44:29.375Z,25.17
2023-04-16T23:46:57.244Z,23.73
2023-04-16T23:49:25.317Z,24.67
2023-04-16T23:51:52.982Z,24.05
2023-04-16T23:54:21.302Z,24.08
2023-04-16T23:56:49.187Z,24.42
2023-04-16T23:59:16.827Z,24.60
